sensor_id;sensor_type;location;lat;lon;timestamp;P1;durP1;ratioP1;P2;durP2;ratioP2
595;SDS011;19946;49.306;11.350;2022-10-16T00:01:04;247.90;;;239.60;;
595;SDS011;19946;49.306;11.350;2022-10-16T00:04:06;248.87;;;240.57;;
595;SDS011;19946;49.306;11.350;2022-10-16T00:07:07;276.77;;;267.43;;
595;SDS011;19946;49.306;11.350;2022-10-16T00:10:08;235.80;;;227.80;;
595;SDS011;19946;49.306;11.350;2022-10-16T00:13:09;249.27;;;240.93;;
595;SDS011;19946;49.306;11.350;2022-10-16T00:16:12;205.50;;;198.40;;
595;SDS011;19946;49.306;11.350;2022-10-16T00:19:13;184.00;;;177.40;;
595;SDS011;19946;49.306;11.350;2022-10-16T00:22:15;210.43;;;203.20;;
595;SDS011;19946;49.306;11.350;2022-10-16T00:25:17;205.53;;;198.43;;
595;SDS011;19946;49.306;11.350;2022-10-16T00:28:20;203.50;;;196.33;;
595;SDS011;19946;49.306;11.350;2022-10-16T00:31:27;200.37;;;193.27;;
595;SDS011;19946;49.306;11.350;2022-10-16T00:34:30;177.90;;;171.50;;
595;SDS011;19946;49.306;11.350;2022-10-16T00:37:31;199.27;;;192.27;;
595;SDS011;19946;49.306;11.350;2022-10-16T00:40:31;175.00;;;168.70;;
595;SDS011;19946;49.306;11.350;2022-10-16T00:43:39;139.67;;;134.57;;
595;SDS011;19946;49.306;11.350;2022-10-16T00:46:51;148.10;;;142.70;;
595;SDS011;19946;49.306;11.350;2022-10-16T00:49:56;178.50;;;172.10;;
595;SDS011;19946;49.306;11.350;2022-10-16T00:53:02;174.93;;;168.63;;
595;SDS011;19946;49.306;11.350;2022-10-16T00:56:06;211.13;;;203.83;;
595;SDS011;19946;49.306;11.350;2022-10-16T00:59:28;223.43;;;215.93;;
595;SDS011;19946;49.306;11.350;2022-10-16T01:02:32;199.20;;;192.40;;
595;SDS011;19946;49.306;11.350;2022-10-16T01:05:39;215.77;;;208.37;;
595;SDS011;19946;49.306;11.350;2022-10-16T01:12:14;254.10;;;245.63;;
595;SDS011;19946;49.306;11.350;2022-10-16T01:15:25;239.63;;;231.63;;
595;SDS011;19946;49.306;11.350;2022-10-16T01:21:40;241.33;;;233.23;;
595;SDS011;19946;49.306;11.350;2022-10-16T01:24:45;271.13;;;262.07;;
595;SDS011;19946;49.306;11.350;2022-10-16T01:27:49;198.70;;;191.80;;
595;SDS011;19946;49.306;11.350;2022-10-16T01:30:51;224.40;;;216.90;;
595;SDS011;19946;49.306;11.350;2022-10-16T01:33:59;193.17;;;186.43;;
595;SDS011;19946;49.306;11.350;2022-10-16T01:37:05;186.50;;;179.90;;
595;SDS011;19946;49.306;11.350;2022-10-16T01:40:12;175.00;;;168.70;;
595;SDS011;19946;49.306;11.350;2022-10-16T01:43:24;185.73;;;179.13;;
595;SDS011;19946;49.306;11.350;2022-10-16T01:46:30;158.40;;;152.60;;
595;SDS011;19946;49.306;11.350;2022-10-16T01:49:36;133.63;;;128.70;;
595;SDS011;19946;49.306;11.350;2022-10-16T01:52:42;136.40;;;131.30;;
595;SDS011;19946;49.306;11.350;2022-10-16T01:55:47;130.80;;;125.90;;
595;SDS011;19946;49.306;11.350;2022-10-16T01:58:52;126.70;;;121.90;;
595;SDS011;19946;49.306;11.350;2022-10-16T02:02:00;119.17;;;114.67;;
595;SDS011;19946;49.306;11.350;2022-10-16T02:05:10;135.70;;;130.60;;
595;SDS011;19946;49.306;11.350;2022-10-16T02:08:17;132.33;;;127.33;;
595;SDS011;19946;49.306;11.350;2022-10-16T02:11:18;129.40;;;124.50;;
595;SDS011;19946;49.306;11.350;2022-10-16T02:14:20;132.07;;;127.07;;
595;SDS011;19946;49.306;11.350;2022-10-16T02:17:25;138.53;;;133.33;;
595;SDS011;19946;49.306;11.350;2022-10-16T02:20:27;157.93;;;152.03;;
595;SDS011;19946;49.306;11.350;2022-10-16T02:23:48;150.40;;;144.80;;
595;SDS011;19946;49.306;11.350;2022-10-16T02:30:05;151.93;;;146.33;;
595;SDS011;19946;49.306;11.350;2022-10-16T02:33:12;167.23;;;161.10;;
595;SDS011;19946;49.306;11.350;2022-10-16T02:36:15;149.80;;;144.30;;
595;SDS011;19946;49.306;11.350;2022-10-16T02:39:15;164.27;;;158.17;;
595;SDS011;19946;49.306;11.350;2022-10-16T02:42:17;170.93;;;164.63;;
595;SDS011;19946;49.306;11.350;2022-10-16T02:45:18;171.93;;;165.63;;
595;SDS011;19946;49.306;11.350;2022-10-16T02:48:19;160.17;;;154.20;;
595;SDS011;19946;49.306;11.350;2022-10-16T02:51:19;136.30;;;131.20;;
595;SDS011;19946;49.306;11.350;2022-10-16T02:54:20;144.10;;;138.70;;
595;SDS011;19946;49.306;11.350;2022-10-16T02:57:20;163.13;;;157.13;;
595;SDS011;19946;49.306;11.350;2022-10-16T03:00:21;174.03;;;167.63;;
595;SDS011;19946;49.306;11.350;2022-10-16T03:03:22;166.90;;;160.80;;
595;SDS011;19946;49.306;11.350;2022-10-16T03:06:22;180.47;;;173.87;;
595;SDS011;19946;49.306;11.350;2022-10-16T03:09:23;148.60;;;143.00;;
595;SDS011;19946;49.306;11.350;2022-10-16T03:12:23;151.13;;;145.53;;
595;SDS011;19946;49.306;11.350;2022-10-16T03:15:24;149.53;;;144.00;;
595;SDS011;19946;49.306;11.350;2022-10-16T03:18:27;122.80;;;118.10;;
595;SDS011;19946;49.306;11.350;2022-10-16T03:21:28;120.90;;;116.33;;
595;SDS011;19946;49.306;11.350;2022-10-16T03:24:29;133.43;;;128.43;;
595;SDS011;19946;49.306;11.350;2022-10-16T03:27:31;111.10;;;106.80;;
595;SDS011;19946;49.306;11.350;2022-10-16T03:30:32;131.97;;;126.97;;
595;SDS011;19946;49.306;11.350;2022-10-16T03:33:33;139.07;;;133.83;;
595;SDS011;19946;49.306;11.350;2022-10-16T03:36:33;117.10;;;112.60;;
595;SDS011;19946;49.306;11.350;2022-10-16T03:39:37;124.90;;;120.30;;
595;SDS011;19946;49.306;11.350;2022-10-16T03:42:37;127.17;;;122.47;;
595;SDS011;19946;49.306;11.350;2022-10-16T03:45:39;117.43;;;113.03;;
595;SDS011;19946;49.306;11.350;2022-10-16T03:48:41;128.60;;;123.87;;
595;SDS011;19946;49.306;11.350;2022-10-16T03:51:41;129.20;;;124.20;;
595;SDS011;19946;49.306;11.350;2022-10-16T03:54:42;104.07;;;99.87;;
595;SDS011;19946;49.306;11.350;2022-10-16T03:57:43;141.83;;;136.63;;
595;SDS011;19946;49.306;11.350;2022-10-16T04:00:43;140.43;;;135.33;;
595;SDS011;19946;49.306;11.350;2022-10-16T04:03:44;120.77;;;116.27;;
595;SDS011;19946;49.306;11.350;2022-10-16T04:06:45;118.53;;;114.03;;
595;SDS011;19946;49.306;11.350;2022-10-16T04:09:46;74.83;;;71.53;;
595;SDS011;19946;49.306;11.350;2022-10-16T04:12:46;85.43;;;81.80;;
595;SDS011;19946;49.306;11.350;2022-10-16T04:15:48;69.87;;;66.90;;
595;SDS011;19946;49.306;11.350;2022-10-16T04:18:50;78.87;;;75.57;;
595;SDS011;19946;49.306;11.350;2022-10-16T04:21:50;97.30;;;93.43;;
595;SDS011;19946;49.306;11.350;2022-10-16T04:24:52;75.63;;;72.43;;
595;SDS011;19946;49.306;11.350;2022-10-16T04:27:56;80.50;;;77.10;;
595;SDS011;19946;49.306;11.350;2022-10-16T04:30:59;112.00;;;107.70;;
595;SDS011;19946;49.306;11.350;2022-10-16T04:33:59;100.57;;;96.57;;
595;SDS011;19946;49.306;11.350;2022-10-16T04:37:00;107.13;;;103.00;;
595;SDS011;19946;49.306;11.350;2022-10-16T04:40:02;137.83;;;132.73;;
595;SDS011;19946;49.306;11.350;2022-10-16T04:43:03;115.53;;;111.03;;
595;SDS011;19946;49.306;11.350;2022-10-16T04:46:06;122.00;;;117.30;;
595;SDS011;19946;49.306;11.350;2022-10-16T04:49:08;132.50;;;127.53;;
595;SDS011;19946;49.306;11.350;2022-10-16T04:52:09;139.97;;;134.83;;
595;SDS011;19946;49.306;11.350;2022-10-16T04:55:12;148.53;;;143.13;;
595;SDS011;19946;49.306;11.350;2022-10-16T04:58:13;116.70;;;112.40;;
595;SDS011;19946;49.306;11.350;2022-10-16T05:01:16;154.43;;;148.73;;
595;SDS011;19946;49.306;11.350;2022-10-16T05:04:17;164.30;;;158.27;;
595;SDS011;19946;49.306;11.350;2022-10-16T05:07:19;185.80;;;179.10;;
595;SDS011;19946;49.306;11.350;2022-10-16T05:10:20;189.60;;;182.80;;
595;SDS011;19946;49.306;11.350;2022-10-16T05:13:20;153.77;;;148.17;;
595;SDS011;19946;49.306;11.350;2022-10-16T05:16:21;197.03;;;190.13;;
595;SDS011;19946;49.306;11.350;2022-10-16T05:19:21;187.43;;;180.73;;
595;SDS011;19946;49.306;11.350;2022-10-16T05:22:23;171.60;;;165.30;;
595;SDS011;19946;49.306;11.350;2022-10-16T05:25:24;179.43;;;173.07;;
595;SDS011;19946;49.306;11.350;2022-10-16T05:28:25;233.40;;;225.40;;
595;SDS011;19946;49.306;11.350;2022-10-16T05:31:29;163.93;;;158.03;;
595;SDS011;19946;49.306;11.350;2022-10-16T05:34:32;166.33;;;160.20;;
595;SDS011;19946;49.306;11.350;2022-10-16T05:37:33;197.70;;;190.60;;
595;SDS011;19946;49.306;11.350;2022-10-16T05:40:33;200.07;;;192.97;;
595;SDS011;19946;49.306;11.350;2022-10-16T05:43:35;177.10;;;170.70;;
595;SDS011;19946;49.306;11.350;2022-10-16T05:46:35;175.20;;;168.80;;
595;SDS011;19946;49.306;11.350;2022-10-16T05:49:36;181.90;;;175.43;;
595;SDS011;19946;49.306;11.350;2022-10-16T05:52:36;200.20;;;193.10;;
595;SDS011;19946;49.306;11.350;2022-10-16T05:55:36;227.97;;;220.07;;
595;SDS011;19946;49.306;11.350;2022-10-16T05:58:37;187.23;;;180.53;;
595;SDS011;19946;49.306;11.350;2022-10-16T06:01:40;217.97;;;210.47;;
595;SDS011;19946;49.306;11.350;2022-10-16T06:04:41;216.30;;;208.87;;
595;SDS011;19946;49.306;11.350;2022-10-16T06:07:41;221.57;;;213.93;;
595;SDS011;19946;49.306;11.350;2022-10-16T06:10:41;228.00;;;220.00;;
595;SDS011;19946;49.306;11.350;2022-10-16T06:13:42;227.97;;;219.87;;
595;SDS011;19946;49.306;11.350;2022-10-16T06:16:43;177.87;;;171.07;;
595;SDS011;19946;49.306;11.350;2022-10-16T06:19:43;143.20;;;137.60;;
595;SDS011;19946;49.306;11.350;2022-10-16T06:22:44;121.20;;;116.53;;
595;SDS011;19946;49.306;11.350;2022-10-16T06:25:45;127.30;;;122.50;;
595;SDS011;19946;49.306;11.350;2022-10-16T06:28:46;137.80;;;132.50;;
595;SDS011;19946;49.306;11.350;2022-10-16T06:31:47;131.50;;;126.20;;
595;SDS011;19946;49.306;11.350;2022-10-16T06:34:47;121.40;;;116.50;;
595;SDS011;19946;49.306;11.350;2022-10-16T06:37:48;90.20;;;86.40;;
595;SDS011;19946;49.306;11.350;2022-10-16T06:40:48;75.13;;;71.80;;
595;SDS011;19946;49.306;11.350;2022-10-16T06:43:48;92.40;;;88.53;;
595;SDS011;19946;49.306;11.350;2022-10-16T06:46:49;102.83;;;98.63;;
595;SDS011;19946;49.306;11.350;2022-10-16T06:49:49;89.27;;;85.27;;
595;SDS011;19946;49.306;11.350;2022-10-16T06:52:50;80.30;;;76.60;;
595;SDS011;19946;49.306;11.350;2022-10-16T06:55:50;65.20;;;62.00;;
595;SDS011;19946;49.306;11.350;2022-10-16T06:58:51;97.13;;;93.17;;
595;SDS011;19946;49.306;11.350;2022-10-16T07:01:52;78.00;;;74.50;;
595;SDS011;19946;49.306;11.350;2022-10-16T07:04:52;43.47;;;41.07;;
595;SDS011;19946;49.306;11.350;2022-10-16T07:07:52;46.53;;;43.93;;
595;SDS011;19946;49.306;11.350;2022-10-16T07:11:03;45.90;;;43.30;;
595;SDS011;19946;49.306;11.350;2022-10-16T07:14:05;46.00;;;43.40;;
595;SDS011;19946;49.306;11.350;2022-10-16T07:17:14;46.13;;;43.53;;
595;SDS011;19946;49.306;11.350;2022-10-16T07:20:15;38.83;;;36.57;;
595;SDS011;19946;49.306;11.350;2022-10-16T07:23:15;43.57;;;41.17;;
595;SDS011;19946;49.306;11.350;2022-10-16T07:26:16;40.03;;;37.73;;
595;SDS011;19946;49.306;11.350;2022-10-16T07:29:20;34.43;;;32.43;;
595;SDS011;19946;49.306;11.350;2022-10-16T07:32:21;45.30;;;42.80;;
595;SDS011;19946;49.306;11.350;2022-10-16T07:35:22;38.73;;;36.53;;
595;SDS011;19946;49.306;11.350;2022-10-16T07:38:22;45.30;;;42.80;;
595;SDS011;19946;49.306;11.350;2022-10-16T07:41:22;39.73;;;37.43;;
595;SDS011;19946;49.306;11.350;2022-10-16T07:44:23;34.90;;;32.80;;
595;SDS011;19946;49.306;11.350;2022-10-16T07:47:24;35.00;;;32.90;;
595;SDS011;19946;49.306;11.350;2022-10-16T07:50:24;38.40;;;36.10;;
595;SDS011;19946;49.306;11.350;2022-10-16T07:53:25;32.93;;;30.90;;
595;SDS011;19946;49.306;11.350;2022-10-16T07:56:26;34.47;;;32.40;;
595;SDS011;19946;49.306;11.350;2022-10-16T07:59:27;34.33;;;32.33;;
595;SDS011;19946;49.306;11.350;2022-10-16T08:02:27;36.43;;;34.23;;
595;SDS011;19946;49.306;11.350;2022-10-16T08:05:29;35.80;;;33.70;;
595;SDS011;19946;49.306;11.350;2022-10-16T08:08:30;39.43;;;37.13;;
595;SDS011;19946;49.306;11.350;2022-10-16T08:11:31;31.80;;;29.80;;
595;SDS011;19946;49.306;11.350;2022-10-16T08:14:32;38.73;;;36.43;;
595;SDS011;19946;49.306;11.350;2022-10-16T08:17:33;35.97;;;33.77;;
595;SDS011;19946;49.306;11.350;2022-10-16T08:20:33;35.27;;;32.97;;
595;SDS011;19946;49.306;11.350;2022-10-16T08:23:34;44.97;;;42.50;;
595;SDS011;19946;49.306;11.350;2022-10-16T08:26:34;33.27;;;31.17;;
595;SDS011;19946;49.306;11.350;2022-10-16T08:29:34;31.30;;;29.40;;
595;SDS011;19946;49.306;11.350;2022-10-16T08:32:35;34.10;;;32.00;;
595;SDS011;19946;49.306;11.350;2022-10-16T08:35:35;31.20;;;29.20;;
595;SDS011;19946;49.306;11.350;2022-10-16T08:38:36;31.53;;;29.63;;
595;SDS011;19946;49.306;11.350;2022-10-16T08:48:45;30.63;;;28.73;;
595;SDS011;19946;49.306;11.350;2022-10-16T08:51:47;28.00;;;26.30;;
595;SDS011;19946;49.306;11.350;2022-10-16T08:54:50;29.83;;;28.03;;
595;SDS011;19946;49.306;11.350;2022-10-16T08:57:55;31.23;;;29.23;;
595;SDS011;19946;49.306;11.350;2022-10-16T09:00:56;31.63;;;29.63;;
595;SDS011;19946;49.306;11.350;2022-10-16T09:11:14;34.20;;;32.10;;
595;SDS011;19946;49.306;11.350;2022-10-16T09:18:18;29.27;;;27.37;;
595;SDS011;19946;49.306;11.350;2022-10-16T09:21:40;30.57;;;28.67;;
595;SDS011;19946;49.306;11.350;2022-10-16T09:24:42;30.47;;;28.57;;
595;SDS011;19946;49.306;11.350;2022-10-16T09:27:44;30.77;;;28.87;;
595;SDS011;19946;49.306;11.350;2022-10-16T09:30:47;32.50;;;30.50;;
595;SDS011;19946;49.306;11.350;2022-10-16T09:33:55;31.80;;;29.80;;
595;SDS011;19946;49.306;11.350;2022-10-16T09:37:00;34.73;;;32.63;;
595;SDS011;19946;49.306;11.350;2022-10-16T09:40:06;30.00;;;28.10;;
595;SDS011;19946;49.306;11.350;2022-10-16T09:46:26;28.73;;;26.93;;
595;SDS011;19946;49.306;11.350;2022-10-16T09:49:29;27.80;;;26.10;;
595;SDS011;19946;49.306;11.350;2022-10-16T09:52:29;27.87;;;26.27;;
595;SDS011;19946;49.306;11.350;2022-10-16T09:55:30;28.97;;;27.27;;
595;SDS011;19946;49.306;11.350;2022-10-16T09:58:31;27.97;;;26.37;;
595;SDS011;19946;49.306;11.350;2022-10-16T10:01:38;29.43;;;27.63;;
595;SDS011;19946;49.306;11.350;2022-10-16T10:04:46;28.60;;;26.90;;
595;SDS011;19946;49.306;11.350;2022-10-16T10:07:57;28.40;;;26.70;;
595;SDS011;19946;49.306;11.350;2022-10-16T10:10:59;29.83;;;28.13;;
595;SDS011;19946;49.306;11.350;2022-10-16T10:14:06;27.10;;;25.50;;
595;SDS011;19946;49.306;11.350;2022-10-16T10:17:17;28.30;;;26.70;;
595;SDS011;19946;49.306;11.350;2022-10-16T10:23:29;26.23;;;24.63;;
595;SDS011;19946;49.306;11.350;2022-10-16T10:26:33;27.10;;;25.40;;
595;SDS011;19946;49.306;11.350;2022-10-16T10:36:16;26.70;;;25.10;;
595;SDS011;19946;49.306;11.350;2022-10-16T10:39:36;26.77;;;25.17;;
595;SDS011;19946;49.306;11.350;2022-10-16T10:42:46;26.37;;;24.77;;
595;SDS011;19946;49.306;11.350;2022-10-16T10:45:54;27.60;;;26.00;;
595;SDS011;19946;49.306;11.350;2022-10-16T10:52:41;27.10;;;25.50;;
595;SDS011;19946;49.306;11.350;2022-10-16T11:02:41;25.57;;;24.07;;
595;SDS011;19946;49.306;11.350;2022-10-16T11:09:25;25.97;;;24.47;;
595;SDS011;19946;49.306;11.350;2022-10-16T11:12:34;27.17;;;25.57;;
595;SDS011;19946;49.306;11.350;2022-10-16T11:15:40;24.87;;;23.47;;
595;SDS011;19946;49.306;11.350;2022-10-16T11:18:51;25.00;;;23.60;;
595;SDS011;19946;49.306;11.350;2022-10-16T11:25:29;26.60;;;25.10;;
595;SDS011;19946;49.306;11.350;2022-10-16T11:28:39;26.90;;;25.30;;
595;SDS011;19946;49.306;11.350;2022-10-16T11:31:46;27.50;;;25.90;;
595;SDS011;19946;49.306;11.350;2022-10-16T11:34:59;27.37;;;25.83;;
595;SDS011;19946;49.306;11.350;2022-10-16T11:38:10;27.97;;;26.37;;
595;SDS011;19946;49.306;11.350;2022-10-16T11:41:50;26.97;;;25.47;;
595;SDS011;19946;49.306;11.350;2022-10-16T11:57:46;26.50;;;25.00;;
595;SDS011;19946;49.306;11.350;2022-10-16T12:07:41;26.20;;;24.70;;
595;SDS011;19946;49.306;11.350;2022-10-16T12:11:03;27.00;;;25.50;;
595;SDS011;19946;49.306;11.350;2022-10-16T12:14:21;28.30;;;26.80;;
595;SDS011;19946;49.306;11.350;2022-10-16T12:17:37;29.70;;;28.10;;
595;SDS011;19946;49.306;11.350;2022-10-16T12:20:38;31.67;;;29.97;;
595;SDS011;19946;49.306;11.350;2022-10-16T12:23:50;28.90;;;27.40;;
595;SDS011;19946;49.306;11.350;2022-10-16T12:26:52;29.17;;;27.67;;
595;SDS011;19946;49.306;11.350;2022-10-16T12:29:54;29.80;;;28.20;;
595;SDS011;19946;49.306;11.350;2022-10-16T12:32:58;30.10;;;28.50;;
595;SDS011;19946;49.306;11.350;2022-10-16T12:36:02;30.10;;;28.40;;
595;SDS011;19946;49.306;11.350;2022-10-16T12:39:06;29.60;;;28.00;;
595;SDS011;19946;49.306;11.350;2022-10-16T12:45:30;29.47;;;27.87;;
595;SDS011;19946;49.306;11.350;2022-10-16T12:48:32;28.80;;;27.30;;
595;SDS011;19946;49.306;11.350;2022-10-16T12:51:35;30.60;;;29.00;;
595;SDS011;19946;49.306;11.350;2022-10-16T12:54:37;29.10;;;27.60;;
595;SDS011;19946;49.306;11.350;2022-10-16T13:08:26;30.27;;;28.67;;
595;SDS011;19946;49.306;11.350;2022-10-16T13:15:01;27.60;;;26.20;;
595;SDS011;19946;49.306;11.350;2022-10-16T13:28:34;27.80;;;26.30;;
595;SDS011;19946;49.306;11.350;2022-10-16T13:31:38;28.00;;;26.50;;
595;SDS011;19946;49.306;11.350;2022-10-16T13:34:45;28.13;;;26.63;;
595;SDS011;19946;49.306;11.350;2022-10-16T13:37:48;26.60;;;25.20;;
595;SDS011;19946;49.306;11.350;2022-10-16T13:40:59;25.70;;;24.40;;
595;SDS011;19946;49.306;11.350;2022-10-16T13:44:14;25.70;;;24.40;;
595;SDS011;19946;49.306;11.350;2022-10-16T13:47:26;27.30;;;25.90;;
595;SDS011;19946;49.306;11.350;2022-10-16T13:50:28;26.80;;;25.40;;
595;SDS011;19946;49.306;11.350;2022-10-16T13:53:35;27.93;;;26.33;;
595;SDS011;19946;49.306;11.350;2022-10-16T13:56:36;27.37;;;25.97;;
595;SDS011;19946;49.306;11.350;2022-10-16T13:59:39;44.77;;;42.77;;
595;SDS011;19946;49.306;11.350;2022-10-16T14:02:40;28.03;;;26.53;;
595;SDS011;19946;49.306;11.350;2022-10-16T14:05:52;28.30;;;26.80;;
595;SDS011;19946;49.306;11.350;2022-10-16T14:08:59;31.47;;;29.87;;
595;SDS011;19946;49.306;11.350;2022-10-16T14:12:07;29.70;;;28.20;;
595;SDS011;19946;49.306;11.350;2022-10-16T14:15:16;26.70;;;25.30;;
595;SDS011;19946;49.306;11.350;2022-10-16T14:18:20;25.90;;;24.60;;
595;SDS011;19946;49.306;11.350;2022-10-16T14:21:22;28.67;;;27.33;;
595;SDS011;19946;49.306;11.350;2022-10-16T14:27:32;27.40;;;26.10;;
595;SDS011;19946;49.306;11.350;2022-10-16T14:30:35;26.90;;;25.60;;
595;SDS011;19946;49.306;11.350;2022-10-16T14:33:36;25.90;;;24.60;;
595;SDS011;19946;49.306;11.350;2022-10-16T14:36:37;28.10;;;26.70;;
595;SDS011;19946;49.306;11.350;2022-10-16T14:39:41;28.57;;;27.17;;
595;SDS011;19946;49.306;11.350;2022-10-16T14:42:42;28.10;;;26.70;;
595;SDS011;19946;49.306;11.350;2022-10-16T14:45:44;28.03;;;26.63;;
595;SDS011;19946;49.306;11.350;2022-10-16T14:48:53;26.73;;;25.43;;
595;SDS011;19946;49.306;11.350;2022-10-16T14:51:59;26.20;;;25.00;;
595;SDS011;19946;49.306;11.350;2022-10-16T14:55:01;27.00;;;25.80;;
595;SDS011;19946;49.306;11.350;2022-10-16T14:58:02;26.40;;;25.20;;
595;SDS011;19946;49.306;11.350;2022-10-16T15:01:02;26.50;;;25.30;;
595;SDS011;19946;49.306;11.350;2022-10-16T15:04:03;28.40;;;26.80;;
595;SDS011;19946;49.306;11.350;2022-10-16T15:07:03;27.83;;;26.63;;
595;SDS011;19946;49.306;11.350;2022-10-16T15:10:04;27.20;;;26.00;;
595;SDS011;19946;49.306;11.350;2022-10-16T15:13:05;26.30;;;25.20;;
595;SDS011;19946;49.306;11.350;2022-10-16T15:16:07;27.37;;;26.27;;
595;SDS011;19946;49.306;11.350;2022-10-16T15:19:11;27.40;;;26.20;;
595;SDS011;19946;49.306;11.350;2022-10-16T15:22:11;27.83;;;26.63;;
595;SDS011;19946;49.306;11.350;2022-10-16T15:25:17;26.43;;;25.30;;
595;SDS011;19946;49.306;11.350;2022-10-16T15:28:39;28.20;;;27.00;;
595;SDS011;19946;49.306;11.350;2022-10-16T15:31:40;27.80;;;26.60;;
595;SDS011;19946;49.306;11.350;2022-10-16T15:34:42;27.07;;;25.87;;
595;SDS011;19946;49.306;11.350;2022-10-16T15:37:43;28.60;;;27.30;;
595;SDS011;19946;49.306;11.350;2022-10-16T15:40:43;28.90;;;27.60;;
595;SDS011;19946;49.306;11.350;2022-10-16T15:43:44;28.90;;;27.60;;
595;SDS011;19946;49.306;11.350;2022-10-16T15:46:44;28.87;;;27.53;;
595;SDS011;19946;49.306;11.350;2022-10-16T15:49:45;29.60;;;28.30;;
595;SDS011;19946;49.306;11.350;2022-10-16T15:52:45;28.30;;;27.00;;
595;SDS011;19946;49.306;11.350;2022-10-16T15:55:46;29.40;;;27.77;;
595;SDS011;19946;49.306;11.350;2022-10-16T15:58:46;28.30;;;27.00;;
595;SDS011;19946;49.306;11.350;2022-10-16T16:01:46;27.57;;;26.37;;
595;SDS011;19946;49.306;11.350;2022-10-16T16:04:47;25.90;;;24.80;;
595;SDS011;19946;49.306;11.350;2022-10-16T16:07:47;26.40;;;25.30;;
595;SDS011;19946;49.306;11.350;2022-10-16T16:10:58;27.33;;;26.13;;
595;SDS011;19946;49.306;11.350;2022-10-16T16:14:00;27.10;;;25.90;;
595;SDS011;19946;49.306;11.350;2022-10-16T16:17:00;28.83;;;27.53;;
595;SDS011;19946;49.306;11.350;2022-10-16T16:20:02;28.40;;;27.10;;
595;SDS011;19946;49.306;11.350;2022-10-16T16:23:04;28.40;;;27.20;;
595;SDS011;19946;49.306;11.350;2022-10-16T16:26:15;26.70;;;25.50;;
595;SDS011;19946;49.306;11.350;2022-10-16T16:29:26;27.43;;;26.13;;
595;SDS011;19946;49.306;11.350;2022-10-16T16:32:26;27.43;;;26.13;;
595;SDS011;19946;49.306;11.350;2022-10-16T16:35:26;28.20;;;26.90;;
595;SDS011;19946;49.306;11.350;2022-10-16T16:38:27;26.87;;;25.67;;
595;SDS011;19946;49.306;11.350;2022-10-16T16:41:28;26.97;;;25.67;;
595;SDS011;19946;49.306;11.350;2022-10-16T16:44:30;27.33;;;26.13;;
595;SDS011;19946;49.306;11.350;2022-10-16T16:47:30;29.30;;;27.90;;
595;SDS011;19946;49.306;11.350;2022-10-16T16:50:34;29.37;;;27.90;;
595;SDS011;19946;49.306;11.350;2022-10-16T16:53:36;29.97;;;28.47;;
595;SDS011;19946;49.306;11.350;2022-10-16T16:56:36;28.87;;;27.47;;
595;SDS011;19946;49.306;11.350;2022-10-16T16:59:36;33.73;;;32.13;;
595;SDS011;19946;49.306;11.350;2022-10-16T17:02:37;29.43;;;28.03;;
595;SDS011;19946;49.306;11.350;2022-10-16T17:05:43;28.67;;;27.27;;
595;SDS011;19946;49.306;11.350;2022-10-16T17:08:43;38.23;;;36.50;;
595;SDS011;19946;49.306;11.350;2022-10-16T17:11:43;35.03;;;33.50;;
595;SDS011;19946;49.306;11.350;2022-10-16T17:14:45;30.17;;;28.87;;
595;SDS011;19946;49.306;11.350;2022-10-16T17:17:46;26.00;;;24.90;;
595;SDS011;19946;49.306;11.350;2022-10-16T17:20:46;26.80;;;25.60;;
595;SDS011;19946;49.306;11.350;2022-10-16T17:23:50;34.33;;;32.83;;
595;SDS011;19946;49.306;11.350;2022-10-16T17:26:51;27.27;;;26.17;;
595;SDS011;19946;49.306;11.350;2022-10-16T17:29:51;33.57;;;32.17;;
595;SDS011;19946;49.306;11.350;2022-10-16T17:32:52;36.33;;;34.83;;
595;SDS011;19946;49.306;11.350;2022-10-16T17:35:52;37.23;;;35.73;;
595;SDS011;19946;49.306;11.350;2022-10-16T17:38:53;35.23;;;33.73;;
595;SDS011;19946;49.306;11.350;2022-10-16T17:41:53;36.87;;;35.20;;
595;SDS011;19946;49.306;11.350;2022-10-16T17:44:54;46.13;;;44.13;;
595;SDS011;19946;49.306;11.350;2022-10-16T17:47:55;43.20;;;41.40;;
595;SDS011;19946;49.306;11.350;2022-10-16T17:50:57;39.30;;;37.70;;
595;SDS011;19946;49.306;11.350;2022-10-16T17:53:58;44.37;;;42.53;;
595;SDS011;19946;49.306;11.350;2022-10-16T17:56:59;46.73;;;44.73;;
595;SDS011;19946;49.306;11.350;2022-10-16T18:00:00;44.67;;;42.73;;
595;SDS011;19946;49.306;11.350;2022-10-16T18:03:04;44.00;;;42.00;;
595;SDS011;19946;49.306;11.350;2022-10-16T18:06:05;34.50;;;32.90;;
595;SDS011;19946;49.306;11.350;2022-10-16T18:09:06;28.63;;;27.33;;
595;SDS011;19946;49.306;11.350;2022-10-16T18:12:08;27.80;;;26.60;;
595;SDS011;19946;49.306;11.350;2022-10-16T18:15:08;27.10;;;25.90;;
595;SDS011;19946;49.306;11.350;2022-10-16T18:18:10;27.20;;;26.00;;
595;SDS011;19946;49.306;11.350;2022-10-16T18:21:11;27.37;;;26.17;;
595;SDS011;19946;49.306;11.350;2022-10-16T18:24:13;26.53;;;25.33;;
595;SDS011;19946;49.306;11.350;2022-10-16T18:27:14;27.07;;;25.87;;
595;SDS011;19946;49.306;11.350;2022-10-16T18:30:14;27.43;;;26.23;;
595;SDS011;19946;49.306;11.350;2022-10-16T18:33:15;27.37;;;26.17;;
595;SDS011;19946;49.306;11.350;2022-10-16T18:36:20;26.43;;;25.23;;
595;SDS011;19946;49.306;11.350;2022-10-16T18:39:23;26.10;;;25.00;;
595;SDS011;19946;49.306;11.350;2022-10-16T18:42:23;25.90;;;24.70;;
595;SDS011;19946;49.306;11.350;2022-10-16T18:45:24;25.77;;;24.67;;
595;SDS011;19946;49.306;11.350;2022-10-16T18:48:26;25.30;;;24.20;;
595;SDS011;19946;49.306;11.350;2022-10-16T18:51:29;25.07;;;23.97;;
595;SDS011;19946;49.306;11.350;2022-10-16T18:54:29;26.13;;;24.93;;
595;SDS011;19946;49.306;11.350;2022-10-16T18:57:30;26.20;;;25.00;;
595;SDS011;19946;49.306;11.350;2022-10-16T19:00:30;25.90;;;24.80;;
595;SDS011;19946;49.306;11.350;2022-10-16T19:03:32;25.60;;;24.50;;
595;SDS011;19946;49.306;11.350;2022-10-16T19:06:34;25.77;;;24.67;;
595;SDS011;19946;49.306;11.350;2022-10-16T19:09:36;26.17;;;25.00;;
595;SDS011;19946;49.306;11.350;2022-10-16T19:12:37;26.00;;;24.90;;
595;SDS011;19946;49.306;11.350;2022-10-16T19:15:40;25.40;;;24.30;;
595;SDS011;19946;49.306;11.350;2022-10-16T19:18:42;26.43;;;25.23;;
595;SDS011;19946;49.306;11.350;2022-10-16T19:21:42;25.50;;;24.30;;
595;SDS011;19946;49.306;11.350;2022-10-16T19:24:43;24.57;;;23.47;;
595;SDS011;19946;49.306;11.350;2022-10-16T19:27:43;25.47;;;24.30;;
595;SDS011;19946;49.306;11.350;2022-10-16T19:30:44;24.93;;;23.73;;
595;SDS011;19946;49.306;11.350;2022-10-16T19:33:45;23.83;;;22.83;;
595;SDS011;19946;49.306;11.350;2022-10-16T19:36:46;24.93;;;23.83;;
595;SDS011;19946;49.306;11.350;2022-10-16T19:39:49;23.30;;;22.30;;
595;SDS011;19946;49.306;11.350;2022-10-16T19:42:50;24.10;;;23.00;;
595;SDS011;19946;49.306;11.350;2022-10-16T19:45:50;23.80;;;22.70;;